createdAt,value
2022-12-23T00:01:12.913Z,3.80
2022-12-23T00:03:39.832Z,3.70
2022-12-23T00:06:11.254Z,3.70
2022-12-23T00:08:38.238Z,3.70
2022-12-23T00:11:06.068Z,3.70
2022-12-23T00:13:51.742Z,3.70
2022-12-23T00:16:18.609Z,3.70
2022-12-23T00:18:45.407Z,3.70
2022-12-23T00:21:14.480Z,3.70
2022-12-23T00:23:43.431Z,3.70
2022-12-23T00:26:26.744Z,3.70
2022-12-23T00:28:55.298Z,3.70
2022-12-23T00:31:22.123Z,3.70
2022-12-23T00:33:49.640Z,3.70
2022-12-23T00:36:27.812Z,3.70
2022-12-23T00:39:13.867Z,3.70
2022-12-23T00:41:58.968Z,3.70
2022-12-23T00:44:25.907Z,3.70
2022-12-23T00:46:52.739Z,3.70
2022-12-23T00:49:38.870Z,3.60
2022-12-23T00:52:06.783Z,3.70
2022-12-23T00:54:33.539Z,3.70
2022-12-23T00:57:00.494Z,3.60
2022-12-23T00:59:27.255Z,3.70
2022-12-23T01:02:12.374Z,3.70
2022-12-23T01:04:57.459Z,3.70
2022-12-23T01:07:24.429Z,3.60
2022-12-23T01:09:51.213Z,3.40
2022-12-23T01:12:17.985Z,3.40
2022-12-23T01:14:44.829Z,3.30
2022-12-23T01:17:11.888Z,3.40
2022-12-23T01:19:38.658Z,3.40
2022-12-23T01:22:05.551Z,3.30
2022-12-23T01:24:32.448Z,3.20
2022-12-23T01:26:59.235Z,3.30
2022-12-23T01:29:26.039Z,3.20
2022-12-23T01:31:52.821Z,3.20
2022-12-23T01:34:19.742Z,3.20
2022-12-23T01:36:46.604Z,3.30
2022-12-23T01:39:13.314Z,3.30
2022-12-23T01:41:58.641Z,3.30
2022-12-23T01:44:50.093Z,3.30
2022-12-23T01:47:23.716Z,3.30
2022-12-23T01:49:50.682Z,3.30
2022-12-23T01:52:17.450Z,3.40
2022-12-23T01:54:44.170Z,3.40
2022-12-23T01:57:11.117Z,3.40
2022-12-23T01:59:56.246Z,3.40
2022-12-23T02:02:41.681Z,3.40
2022-12-23T02:05:08.793Z,3.40
2022-12-23T02:07:53.949Z,3.30
2022-12-23T02:10:21.161Z,3.20
2022-12-23T02:12:54.228Z,3.20
2022-12-23T02:15:52.924Z,3.30
2022-12-23T02:18:38.634Z,3.40
2022-12-23T02:21:20.456Z,3.40
2022-12-23T02:24:38.498Z,3.50
2022-12-23T02:27:39.683Z,3.50
2022-12-23T02:30:29.883Z,3.60
2022-12-23T02:33:01.553Z,3.60
2022-12-23T02:35:59.649Z,3.60
2022-12-23T02:38:32.605Z,3.60
2022-12-23T02:41:22.544Z,3.60
2022-12-23T02:43:51.791Z,3.70
2022-12-23T02:46:23.816Z,3.70
2022-12-23T02:49:15.246Z,3.70
2022-12-23T02:51:44.729Z,3.70
2022-12-23T02:54:13.623Z,3.70
2022-12-23T02:56:40.949Z,3.70
2022-12-23T02:59:13.614Z,3.80
2022-12-23T03:01:40.450Z,3.70
2022-12-23T03:04:07.344Z,3.70
2022-12-23T03:06:38.574Z,3.70
2022-12-23T03:09:05.377Z,3.70
2022-12-23T03:12:07.646Z,3.70
2022-12-23T03:15:18.718Z,3.70
2022-12-23T03:17:55.833Z,3.80
2022-12-23T03:20:28.998Z,3.80
2022-12-23T03:23:04.071Z,3.80
2022-12-23T03:25:47.155Z,3.80
2022-12-23T03:28:24.933Z,3.90
2022-12-23T03:30:54.154Z,3.90
2022-12-23T03:33:37.933Z,3.90
2022-12-23T03:36:19.553Z,4.00
2022-12-23T03:38:46.304Z,3.90
2022-12-23T03:41:17.056Z,3.90
2022-12-23T03:43:50.621Z,3.90
2022-12-23T03:46:20.184Z,3.90
2022-12-23T03:48:55.458Z,3.90
2022-12-23T03:51:50.067Z,3.90
2022-12-23T03:54:19.491Z,3.90
2022-12-23T03:56:49.568Z,3.90
2022-12-23T03:59:25.242Z,4.00
2022-12-23T04:01:55.172Z,3.90
2022-12-23T04:04:25.876Z,4.00
2022-12-23T04:06:56.347Z,4.00
2022-12-23T04:09:23.605Z,4.00
2022-12-23T04:11:50.398Z,4.00
2022-12-23T04:14:20.956Z,4.00
2022-12-23T04:16:48.057Z,4.00
2022-12-23T04:19:15.309Z,4.00
2022-12-23T04:21:42.172Z,4.00
2022-12-23T04:24:10.167Z,4.00
2022-12-23T04:26:36.922Z,4.00
2022-12-23T04:29:03.750Z,4.00
2022-12-23T04:31:30.693Z,4.00
2022-12-23T04:33:57.634Z,4.00
2022-12-23T04:36:24.419Z,4.00
2022-12-23T04:38:51.229Z,4.00
2022-12-23T04:41:18.048Z,4.00
2022-12-23T04:43:49.243Z,4.00
2022-12-23T04:46:19.484Z,4.00
2022-12-23T04:48:46.213Z,4.00
2022-12-23T04:51:13.001Z,4.00
2022-12-23T04:53:39.842Z,4.10
2022-12-23T04:56:06.685Z,4.00
2022-12-23T04:58:33.491Z,4.00
2022-12-23T05:01:10.583Z,4.00
2022-12-23T05:03:37.931Z,4.00
2022-12-23T05:06:05.038Z,4.00
2022-12-23T05:08:31.856Z,4.00
2022-12-23T05:10:58.544Z,4.00
2022-12-23T05:13:25.641Z,4.10
2022-12-23T05:15:53.592Z,4.10
2022-12-23T05:18:20.887Z,4.10
2022-12-23T05:20:47.709Z,4.10
2022-12-23T05:23:14.558Z,4.10
2022-12-23T05:25:41.332Z,4.10
2022-12-23T05:28:09.496Z,4.10
2022-12-23T05:30:36.389Z,4.10
2022-12-23T05:33:03.230Z,4.10
2022-12-23T05:35:30.060Z,4.10
2022-12-23T05:37:57.846Z,4.10
2022-12-23T05:40:26.905Z,4.10
2022-12-23T05:42:56.532Z,4.20
2022-12-23T05:45:23.407Z,4.20
2022-12-23T05:47:50.194Z,4.20
2022-12-23T05:50:16.993Z,4.20
2022-12-23T05:52:43.755Z,4.20
2022-12-23T05:55:10.718Z,4.20
2022-12-23T05:57:37.449Z,4.20
2022-12-23T06:00:04.793Z,4.10
2022-12-23T06:02:31.790Z,4.20
2022-12-23T06:04:58.687Z,4.20
2022-12-23T06:07:25.481Z,4.20
2022-12-23T06:09:52.214Z,4.10
2022-12-23T06:12:18.939Z,4.20
2022-12-23T06:14:45.728Z,4.20
2022-12-23T06:17:12.504Z,4.20
2022-12-23T06:19:39.289Z,4.20
2022-12-23T06:22:06.088Z,4.20
2022-12-23T06:24:32.869Z,4.20
2022-12-23T06:26:59.617Z,4.20
2022-12-23T06:29:26.489Z,4.20
2022-12-23T06:31:53.304Z,4.20
2022-12-23T06:34:20.163Z,4.30
2022-12-23T06:36:46.957Z,4.30
2022-12-23T06:39:14.234Z,4.30
2022-12-23T06:41:41.015Z,4.30
2022-12-23T06:44:07.882Z,4.30
2022-12-23T06:46:34.561Z,4.30
2022-12-23T06:49:01.387Z,4.30
2022-12-23T06:51:28.194Z,4.30
2022-12-23T06:53:54.965Z,4.30
2022-12-23T06:56:22.073Z,4.30
2022-12-23T06:58:48.788Z,4.30
2022-12-23T07:01:15.602Z,4.30
2022-12-23T07:03:42.521Z,4.30
2022-12-23T07:06:09.279Z,4.30
2022-12-23T07:08:35.989Z,4.30
2022-12-23T07:11:03.537Z,4.30
2022-12-23T07:13:30.879Z,4.30
2022-12-23T07:15:57.594Z,4.30
2022-12-23T07:18:24.738Z,4.30
2022-12-23T07:20:51.843Z,4.30
2022-12-23T07:23:18.744Z,4.30
2022-12-23T07:25:45.471Z,4.30
2022-12-23T07:28:12.373Z,4.30
2022-12-23T07:30:39.139Z,4.20
2022-12-23T07:33:05.889Z,4.20
2022-12-23T07:35:32.651Z,4.20
2022-12-23T07:37:59.388Z,4.30
2022-12-23T07:40:26.252Z,4.30
2022-12-23T07:42:57.459Z,4.30
2022-12-23T07:45:25.041Z,4.30
2022-12-23T07:47:55.781Z,4.30
2022-12-23T07:50:22.700Z,4.30
2022-12-23T07:52:49.470Z,4.30
2022-12-23T07:55:16.259Z,4.40
2022-12-23T07:57:43.083Z,4.40
2022-12-23T08:00:11.511Z,4.40
2022-12-23T08:02:38.425Z,4.40
2022-12-23T08:05:05.936Z,4.40
2022-12-23T08:07:32.728Z,4.40
2022-12-23T08:09:59.520Z,4.40
2022-12-23T08:12:26.235Z,4.40
2022-12-23T08:14:52.963Z,4.40
2022-12-23T08:17:21.477Z,4.40
2022-12-23T08:19:49.070Z,4.50
2022-12-23T08:22:16.101Z,4.40
2022-12-23T08:24:42.944Z,4.50
2022-12-23T08:27:09.802Z,4.60
2022-12-23T08:29:36.800Z,4.60
2022-12-23T08:32:03.736Z,4.60
2022-12-23T08:34:30.490Z,4.60
2022-12-23T08:36:57.267Z,4.60
2022-12-23T08:39:24.114Z,4.60
2022-12-23T08:41:50.865Z,4.70
2022-12-23T08:44:17.581Z,4.60
2022-12-23T08:46:44.588Z,4.60
2022-12-23T08:49:11.656Z,4.60
2022-12-23T08:51:38.542Z,4.60
2022-12-23T08:54:05.649Z,4.60
2022-12-23T08:56:34.384Z,4.60
2022-12-23T08:59:01.270Z,4.70
2022-12-23T09:01:29.467Z,4.80
2022-12-23T09:03:56.458Z,4.70
2022-12-23T09:06:29.861Z,4.80
2022-12-23T09:08:57.378Z,4.80
2022-12-23T09:11:25.429Z,4.80
2022-12-23T09:13:52.266Z,4.80
2022-12-23T09:16:19.492Z,4.80
2022-12-23T09:18:46.278Z,4.80
2022-12-23T09:21:20.629Z,4.80
2022-12-23T09:23:47.546Z,4.80
2022-12-23T09:26:22.429Z,4.80
2022-12-23T09:28:49.157Z,4.80
2022-12-23T09:31:16.222Z,4.80
2022-12-23T09:33:43.159Z,4.80
2022-12-23T09:36:09.970Z,4.80
2022-12-23T09:38:36.798Z,4.80
2022-12-23T09:41:29.088Z,4.90
2022-12-23T09:44:20.671Z,4.80
2022-12-23T09:46:50.419Z,4.90
2022-12-23T09:49:20.239Z,5.00
2022-12-23T09:51:47.047Z,4.90
2022-12-23T09:54:22.764Z,5.00
2022-12-23T09:57:07.853Z,5.00
2022-12-23T09:59:53.444Z,5.00
2022-12-23T10:02:54.160Z,5.10
2022-12-23T10:05:37.773Z,5.00
2022-12-23T10:08:13.224Z,5.00
2022-12-23T10:10:44.338Z,5.10
2022-12-23T10:13:23.937Z,5.10
2022-12-23T10:15:50.717Z,5.10
2022-12-23T10:18:32.671Z,5.10
2022-12-23T10:21:08.768Z,5.10
2022-12-23T10:23:37.743Z,5.20
2022-12-23T10:26:15.396Z,5.20
2022-12-23T10:28:42.166Z,5.20
2022-12-23T10:34:38.106Z,5.30
2022-12-23T10:37:07.692Z,5.40
2022-12-23T10:39:46.911Z,5.40
2022-12-23T10:42:25.774Z,5.40
2022-12-23T10:44:59.546Z,5.50
2022-12-23T10:47:31.723Z,5.50
2022-12-23T10:50:08.537Z,5.50
2022-12-23T10:52:36.675Z,5.60
2022-12-23T10:55:04.603Z,5.50
2022-12-23T10:57:31.595Z,5.50
2022-12-23T10:59:58.380Z,5.50
2022-12-23T11:03:03.122Z,5.50
2022-12-23T11:05:30.133Z,5.50
2022-12-23T11:07:56.927Z,5.40
2022-12-23T11:10:25.915Z,5.40
2022-12-23T11:12:53.150Z,5.50
2022-12-23T11:15:36.125Z,5.50
2022-12-23T11:18:13.096Z,5.50
2022-12-23T11:20:44.480Z,5.50
2022-12-23T11:23:25.708Z,5.50
2022-12-23T11:26:03.810Z,5.60
2022-12-23T11:28:30.928Z,5.60
2022-12-23T11:31:09.762Z,5.60
2022-12-23T11:33:46.732Z,5.70
2022-12-23T11:36:15.751Z,5.70
2022-12-23T11:39:14.575Z,5.80
2022-12-23T11:41:48.671Z,5.90
2022-12-23T11:44:21.276Z,6.00
2022-12-23T11:46:51.913Z,6.00
2022-12-23T11:49:58.882Z,6.00
2022-12-23T11:52:27.516Z,6.10
2022-12-23T11:54:59.969Z,6.10
2022-12-23T11:57:42.773Z,6.10
2022-12-23T12:00:53.654Z,6.20
2022-12-23T12:03:25.152Z,6.20
2022-12-23T12:05:57.338Z,6.30
2022-12-23T12:08:33.096Z,6.30
2022-12-23T12:11:18.979Z,6.30
2022-12-23T12:13:49.948Z,6.30
2022-12-23T12:16:31.527Z,6.30
2022-12-23T12:19:03.055Z,6.40
2022-12-23T12:21:31.455Z,6.40
2022-12-23T12:24:17.765Z,6.50
2022-12-23T12:26:47.142Z,6.40
2022-12-23T12:29:17.011Z,6.40
2022-12-23T12:31:51.746Z,6.40
2022-12-23T12:34:44.306Z,6.50
2022-12-23T12:37:27.840Z,6.50
2022-12-23T12:40:04.044Z,6.50
2022-12-23T12:42:42.287Z,6.50
2022-12-23T12:45:19.907Z,6.50
2022-12-23T12:48:18.658Z,6.60
2022-12-23T12:50:58.412Z,6.60
2022-12-23T12:53:25.218Z,6.60
2022-12-23T12:55:56.047Z,6.60
2022-12-23T12:58:23.537Z,6.60
2022-12-23T13:01:04.211Z,6.60
2022-12-23T13:03:36.919Z,6.60
2022-12-23T13:06:11.339Z,6.60
2022-12-23T13:08:42.827Z,6.60
2022-12-23T13:12:01.951Z,6.50
2022-12-23T13:14:34.099Z,6.60
2022-12-23T13:17:28.902Z,6.50
2022-12-23T13:19:58.607Z,6.60
2022-12-23T13:22:29.901Z,6.60
2022-12-23T13:25:20.208Z,6.60
2022-12-23T13:27:53.667Z,6.60
2022-12-23T13:30:23.809Z,6.50
2022-12-23T13:33:09.479Z,6.50
2022-12-23T13:36:04.971Z,6.60
2022-12-23T13:39:00.100Z,6.60
2022-12-23T13:41:46.929Z,6.60
2022-12-23T13:44:15.095Z,6.60
2022-12-23T13:47:00.337Z,6.70
2022-12-23T13:50:04.849Z,6.70
2022-12-23T13:52:59.318Z,6.60
2022-12-23T13:55:44.857Z,6.70
2022-12-23T13:58:22.089Z,6.70
2022-12-23T14:01:10.780Z,6.70
2022-12-23T14:03:38.576Z,6.70
2022-12-23T14:06:23.759Z,6.80
2022-12-23T14:08:51.406Z,6.80
2022-12-23T14:11:19.846Z,6.80
2022-12-23T14:13:52.287Z,6.70
2022-12-23T14:16:27.960Z,6.60
2022-12-23T14:19:15.073Z,6.70
2022-12-23T14:21:52.037Z,6.70
2022-12-23T14:25:10.712Z,6.80
2022-12-23T14:27:58.584Z,6.80
2022-12-23T14:30:31.178Z,6.80
2022-12-23T14:32:59.136Z,6.70
2022-12-23T14:35:26.200Z,6.70
2022-12-23T14:38:17.535Z,6.80
2022-12-23T14:40:50.263Z,6.70
2022-12-23T14:43:23.386Z,6.70
2022-12-23T14:45:56.948Z,6.70
2022-12-23T14:48:36.160Z,6.70
2022-12-23T14:51:39.283Z,6.70
2022-12-23T14:54:11.761Z,6.70
2022-12-23T14:56:47.723Z,6.70
2022-12-23T14:59:46.839Z,6.70
2022-12-23T15:02:22.552Z,6.70
2022-12-23T15:04:54.069Z,6.60
2022-12-23T15:07:32.824Z,6.60
2022-12-23T15:10:01.675Z,6.60
2022-12-23T15:12:32.688Z,6.50
2022-12-23T15:15:07.763Z,6.40
2022-12-23T15:17:35.910Z,6.40
2022-12-23T15:20:07.739Z,6.40
2022-12-23T15:22:35.407Z,6.40
2022-12-23T15:25:05.118Z,6.50
2022-12-23T15:27:36.391Z,6.50
2022-12-23T15:30:05.820Z,6.40
2022-12-23T15:32:33.704Z,6.50
2022-12-23T15:35:03.925Z,6.50
2022-12-23T15:37:30.808Z,6.50
2022-12-23T15:40:12.012Z,6.50
2022-12-23T15:42:43.202Z,6.50
2022-12-23T15:45:37.611Z,6.50
2022-12-23T15:48:38.776Z,6.50
2022-12-23T15:51:08.415Z,6.50
2022-12-23T15:53:38.179Z,6.40
2022-12-23T15:56:08.729Z,6.40
2022-12-23T15:58:36.929Z,6.40
2022-12-23T16:01:04.300Z,6.30
2022-12-23T16:03:36.708Z,6.40
2022-12-23T16:06:17.669Z,6.40
2022-12-23T16:08:44.701Z,6.30
2022-12-23T16:11:16.923Z,6.20
2022-12-23T16:14:02.626Z,6.20
2022-12-23T16:16:42.372Z,6.10
2022-12-23T16:19:46.332Z,6.10
2022-12-23T16:22:13.129Z,6.10
2022-12-23T16:24:54.050Z,6.10
2022-12-23T16:27:50.321Z,6.00
2022-12-23T16:30:24.475Z,6.00
2022-12-23T16:32:55.576Z,5.90
2022-12-23T16:35:51.298Z,5.80
2022-12-23T16:38:25.719Z,5.80
2022-12-23T16:40:54.357Z,5.90
2022-12-23T16:43:21.625Z,5.90
2022-12-23T16:45:51.518Z,5.90
2022-12-23T16:48:20.884Z,5.80
2022-12-23T16:50:47.684Z,5.80
2022-12-23T16:53:14.613Z,5.80
2022-12-23T16:55:48.255Z,5.80
2022-12-23T16:58:18.109Z,5.80
2022-12-23T17:00:44.990Z,5.80
2022-12-23T17:03:20.751Z,5.90
2022-12-23T17:05:48.078Z,5.80
2022-12-23T17:08:14.984Z,5.90
2022-12-23T17:10:41.860Z,5.90
2022-12-23T17:13:13.124Z,5.90
2022-12-23T17:15:39.859Z,5.90
2022-12-23T17:18:14.314Z,5.90
2022-12-23T17:20:41.481Z,5.90
2022-12-23T17:23:09.973Z,5.90
2022-12-23T17:25:36.675Z,5.80
2022-12-23T17:28:06.043Z,5.80
2022-12-23T17:30:33.092Z,5.80
2022-12-23T17:32:59.940Z,5.80
2022-12-23T17:35:26.880Z,5.70
2022-12-23T17:37:55.529Z,5.70
2022-12-23T17:40:22.351Z,5.70
2022-12-23T17:42:49.146Z,5.70
2022-12-23T17:45:23.799Z,5.80
2022-12-23T17:47:50.635Z,5.70
2022-12-23T17:50:20.108Z,5.60
2022-12-23T17:52:46.940Z,5.60
2022-12-23T17:55:20.006Z,5.60
2022-12-23T17:57:46.899Z,5.60
2022-12-23T18:00:17.224Z,5.70
2022-12-23T18:02:47.470Z,5.70
2022-12-23T18:05:25.651Z,5.70
2022-12-23T18:07:53.073Z,5.70
2022-12-23T18:10:22.292Z,5.70
2022-12-23T18:13:00.177Z,5.70
2022-12-23T18:15:38.794Z,5.70
2022-12-23T18:18:26.479Z,5.70
2022-12-23T18:20:58.167Z,5.70
2022-12-23T18:23:26.797Z,5.70
2022-12-23T18:25:54.149Z,5.70
2022-12-23T18:28:21.016Z,5.70
2022-12-23T18:30:47.810Z,5.70
2022-12-23T18:33:14.602Z,5.80
2022-12-23T18:35:45.811Z,5.70
2022-12-23T18:38:15.182Z,5.80
2022-12-23T18:40:42.369Z,5.80
2022-12-23T18:43:26.890Z,5.70
2022-12-23T18:45:54.362Z,5.70
2022-12-23T18:48:21.598Z,5.70
2022-12-23T18:50:48.581Z,5.70
2022-12-23T18:53:24.538Z,5.70
2022-12-23T18:55:52.197Z,5.70
2022-12-23T18:58:20.335Z,5.70
2022-12-23T19:00:47.695Z,5.60
2022-12-23T19:03:23.130Z,5.60
2022-12-23T19:05:50.191Z,5.60
2022-12-23T19:08:25.839Z,5.60
2022-12-23T19:10:56.633Z,5.60
2022-12-23T19:13:24.603Z,5.60
2022-12-23T19:15:51.553Z,5.60
2022-12-23T19:18:19.663Z,5.50
2022-12-23T19:20:46.573Z,5.50
2022-12-23T19:23:13.997Z,5.50
2022-12-23T19:25:50.776Z,5.50
2022-12-23T19:28:21.666Z,5.50
2022-12-23T19:30:48.868Z,5.40
2022-12-23T19:33:15.737Z,5.40
2022-12-23T19:35:42.887Z,5.50
2022-12-23T19:38:09.797Z,5.50
2022-12-23T19:40:39.783Z,5.40
2022-12-23T19:43:06.542Z,5.50
2022-12-23T19:45:33.327Z,5.50
2022-12-23T19:48:03.015Z,5.50
2022-12-23T19:50:29.700Z,5.40
2022-12-23T19:52:59.244Z,5.30
2022-12-23T19:55:25.938Z,5.30
2022-12-23T19:57:55.149Z,5.30
2022-12-23T20:00:21.878Z,5.30
2022-12-23T20:02:52.445Z,5.30
2022-12-23T20:05:23.486Z,5.30
2022-12-23T20:07:50.261Z,5.20
2022-12-23T20:10:17.066Z,5.20
2022-12-23T20:12:43.816Z,5.20
2022-12-23T20:15:10.710Z,5.20
2022-12-23T20:17:39.149Z,5.20
2022-12-23T20:20:07.109Z,5.30
2022-12-23T20:22:33.835Z,5.30
2022-12-23T20:25:00.652Z,5.30
2022-12-23T20:27:28.223Z,5.30
2022-12-23T20:29:55.148Z,5.30
2022-12-23T20:32:21.908Z,5.40
2022-12-23T20:34:50.091Z,5.50
2022-12-23T20:37:17.597Z,5.40
2022-12-23T20:39:44.377Z,5.40
2022-12-23T20:42:13.245Z,5.40
2022-12-23T20:44:39.981Z,5.40
2022-12-23T20:47:06.750Z,5.40
2022-12-23T20:49:33.581Z,5.40
2022-12-23T20:52:00.347Z,5.50
2022-12-23T20:54:32.781Z,5.40
2022-12-23T20:57:00.634Z,5.30
2022-12-23T20:59:28.825Z,5.30
2022-12-23T21:01:55.638Z,5.30
2022-12-23T21:04:22.775Z,5.20
2022-12-23T21:06:49.659Z,5.20
2022-12-23T21:09:16.602Z,5.30
2022-12-23T21:11:44.922Z,5.30
2022-12-23T21:14:11.748Z,5.30
2022-12-23T21:16:38.696Z,5.30
2022-12-23T21:19:09.542Z,5.30
2022-12-23T21:21:36.486Z,5.30
2022-12-23T21:24:04.735Z,5.30
2022-12-23T21:26:32.840Z,5.30
2022-12-23T21:29:00.421Z,5.30
2022-12-23T21:31:27.822Z,5.30
2022-12-23T21:33:54.946Z,5.30
2022-12-23T21:36:23.515Z,5.20
2022-12-23T21:38:50.428Z,5.20
2022-12-23T21:41:19.452Z,5.20
2022-12-23T21:43:46.256Z,5.30
2022-12-23T21:46:14.522Z,5.30
2022-12-23T21:48:41.506Z,5.30
2022-12-23T21:51:16.576Z,5.40
2022-12-23T21:53:44.205Z,5.30
2022-12-23T21:56:12.809Z,5.40
2022-12-23T21:58:39.802Z,5.40
2022-12-23T22:01:08.369Z,5.40
2022-12-23T22:03:35.385Z,5.40
2022-12-23T22:06:18.837Z,5.30
2022-12-23T22:08:45.688Z,5.40
2022-12-23T22:11:17.030Z,5.40
2022-12-23T22:13:44.228Z,5.40
2022-12-23T22:16:12.485Z,5.40
2022-12-23T22:18:39.515Z,5.40
2022-12-23T22:21:07.318Z,5.40
2022-12-23T22:23:34.044Z,5.30
2022-12-23T22:26:00.807Z,5.40
2022-12-23T22:28:27.558Z,5.40
2022-12-23T22:30:54.269Z,5.50
2022-12-23T22:33:21.252Z,5.50
2022-12-23T22:35:55.817Z,5.60
2022-12-23T22:38:22.607Z,5.50
2022-12-23T22:40:50.105Z,5.50
2022-12-23T22:43:17.003Z,5.40
2022-12-23T22:45:43.761Z,5.40
2022-12-23T22:48:10.864Z,5.40
2022-12-23T22:50:37.812Z,5.40
2022-12-23T22:53:04.893Z,5.40
2022-12-23T22:55:31.686Z,5.40
2022-12-23T22:57:58.472Z,5.40
2022-12-23T23:00:25.254Z,5.40
2022-12-23T23:02:51.998Z,5.40
2022-12-23T23:05:18.778Z,5.30
2022-12-23T23:07:45.525Z,5.30
2022-12-23T23:10:12.324Z,5.30
2022-12-23T23:12:39.482Z,5.30
2022-12-23T23:15:06.945Z,5.30
2022-12-23T23:17:33.706Z,5.30
2022-12-23T23:20:00.474Z,5.40
2022-12-23T23:22:27.261Z,5.30
2022-12-23T23:24:54.137Z,5.30
2022-12-23T23:27:20.870Z,5.30
2022-12-23T23:29:48.021Z,5.20
2022-12-23T23:32:15.151Z,5.30
2022-12-23T23:34:42.299Z,5.30
2022-12-23T23:37:09.037Z,5.30
2022-12-23T23:39:35.801Z,5.30
2022-12-23T23:42:02.560Z,5.30
2022-12-23T23:44:29.308Z,5.30
2022-12-23T23:46:55.984Z,5.30
2022-12-23T23:49:23.246Z,5.40
2022-12-23T23:51:50.353Z,5.30
2022-12-23T23:54:17.087Z,5.40
2022-12-23T23:56:43.876Z,5.40
2022-12-23T23:59:10.668Z,5.30
